createdAt,value
2016-05-26T00:00:09.246Z,88.73
2016-05-26T00:01:09.311Z,89.06
2016-05-26T00:02:09.267Z,88.87
2016-05-26T00:03:09.269Z,89.2
2016-05-26T00:04:09.257Z,88.82
2016-05-26T00:05:09.259Z,88.82
2016-05-26T00:06:09.262Z,88.59
2016-05-26T00:07:09.108Z,89.16
2016-05-26T00:08:09.267Z,89.45
2016-05-26T00:09:09.270Z,88.97
2016-05-26T00:10:09.116Z,89.25
2016-05-26T00:11:09.259Z,89.16
2016-05-26T00:12:09.261Z,89.25
2016-05-26T00:13:09.280Z,89.16
2016-05-26T00:14:09.268Z,89.64
2016-05-26T00:15:09.302Z,89.45
2016-05-26T00:16:09.367Z,89.25
2016-05-26T00:17:09.275Z,89.06
2016-05-26T00:18:09.263Z,89.25
2016-05-26T00:19:09.281Z,89.25
2016-05-26T00:20:09.269Z,90.02
2016-05-26T00:21:09.271Z,89.73
2016-05-26T00:22:09.289Z,89.92
2016-05-26T00:23:09.277Z,89.92
2016-05-26T00:24:09.263Z,89.73
2016-05-26T00:25:09.297Z,89.73
2016-05-26T00:26:09.315Z,89.64
2016-05-26T00:27:09.271Z,89.83
2016-05-26T00:28:09.274Z,89.64
2016-05-26T00:29:09.276Z,90.11
2016-05-26T00:30:09.279Z,89.54
2016-05-26T00:31:09.282Z,89.92
2016-05-26T00:32:09.284Z,89.92
2016-05-26T00:33:09.287Z,89.64
2016-05-26T00:34:09.290Z,89.64
2016-05-26T00:35:09.121Z,90.21
2016-05-26T00:36:09.281Z,90.11
2016-05-26T00:37:09.268Z,90.21
2016-05-26T00:38:09.286Z,89.92
2016-05-26T00:39:09.289Z,90.21
2016-05-26T00:40:09.291Z,89.92
2016-05-26T00:41:09.122Z,90.31
2016-05-26T00:42:09.297Z,90.83
2016-05-26T00:43:09.283Z,90.11
2016-05-26T00:44:09.286Z,90.88
2016-05-26T00:45:09.288Z,90.97
2016-05-26T00:46:09.291Z,90.5
2016-05-26T00:47:09.278Z,90.69
2016-05-26T00:48:09.297Z,90.78
2016-05-26T00:49:09.143Z,90.78
2016-05-26T00:50:09.286Z,90.55
2016-05-26T00:51:09.289Z,90.45
2016-05-26T00:52:09.291Z,90.45
2016-05-26T00:53:09.279Z,91.12
2016-05-26T00:54:09.297Z,90.73
2016-05-26T00:55:09.284Z,91.12
2016-05-26T00:56:09.287Z,91.31
2016-05-26T00:57:09.290Z,91.21
2016-05-26T00:58:09.293Z,91.41
2016-05-26T00:59:09.295Z,91.12
2016-05-26T01:00:09.282Z,91.21
2016-05-26T01:01:09.285Z,91.12
2016-05-26T01:02:09.318Z,91.31
2016-05-26T01:03:09.306Z,91.12
2016-05-26T01:04:09.293Z,91.31
2016-05-26T01:05:09.296Z,91.12
2016-05-26T01:06:09.282Z,91.21
2016-05-26T01:07:09.285Z,91.21
2016-05-26T01:08:09.303Z,91.6
2016-05-26T01:09:09.134Z,91.69
2016-05-26T01:10:09.293Z,91.41
2016-05-26T01:11:09.295Z,91.5
2016-05-26T01:12:09.299Z,91.69
2016-05-26T01:13:09.286Z,91.12
2016-05-26T01:14:09.132Z,91.41
2016-05-26T01:15:09.291Z,91.6
2016-05-26T01:16:09.294Z,91.88
2016-05-26T01:17:09.297Z,91.78
2016-05-26T01:18:09.580Z,91.69
2016-05-26T01:19:09.286Z,92.26
2016-05-26T01:20:09.289Z,92.46
2016-05-26T01:21:09.292Z,92.07
2016-05-26T01:22:09.294Z,92.07
2016-05-26T01:23:09.296Z,92.36
2016-05-26T01:24:09.300Z,92.26
2016-05-26T01:25:09.302Z,92.17
2016-05-26T01:26:09.290Z,92.17
2016-05-26T01:27:09.307Z,92.46
2016-05-26T01:28:09.295Z,92.36
2016-05-26T01:29:09.298Z,92.69
2016-05-26T01:30:09.300Z,92.79
2016-05-26T01:31:09.304Z,93.22
2016-05-26T01:32:09.290Z,93.22
2016-05-26T01:33:09.746Z,93.12
2016-05-26T01:34:09.295Z,93.27
2016-05-26T01:35:09.298Z,93.17
2016-05-26T01:36:09.301Z,92.98
2016-05-26T01:37:09.304Z,93.27
2016-05-26T01:38:09.323Z,93.12
2016-05-26T01:39:09.309Z,93.55
2016-05-26T01:40:09.296Z,93.46
2016-05-26T01:41:09.173Z,93.27
2016-05-26T01:42:09.301Z,93.46
2016-05-26T01:43:09.289Z,93.27
2016-05-26T01:44:09.291Z,93.17
2016-05-26T01:45:09.309Z,93.46
2016-05-26T01:46:09.296Z,93.36
2016-05-26T01:47:09.299Z,93.46
2016-05-26T01:48:09.302Z,93.36
2016-05-26T01:49:09.147Z,93.36
2016-05-26T01:50:09.307Z,92.79
2016-05-26T01:51:09.325Z,92.69
2016-05-26T01:52:09.141Z,93.08
2016-05-26T01:53:09.300Z,92.69
2016-05-26T01:54:09.302Z,93.36
2016-05-26T01:55:09.289Z,93.27
2016-05-26T01:56:09.292Z,93.84
2016-05-26T01:57:09.295Z,93.65
2016-05-26T01:58:09.141Z,93.74
2016-05-26T01:59:09.300Z,93.84
2016-05-26T02:00:09.302Z,93.74
2016-05-26T02:01:09.305Z,94.03
2016-05-26T02:02:09.293Z,93.55
2016-05-26T02:03:09.295Z,93.74
2016-05-26T02:04:09.298Z,93.65
2016-05-26T02:05:09.300Z,94.32
2016-05-26T02:06:09.304Z,94.22
2016-05-26T02:07:09.306Z,94.12
2016-05-26T02:08:09.293Z,93.46
2016-05-26T02:09:09.295Z,93.84
2016-05-26T02:10:09.142Z,93.93
2016-05-26T02:11:09.301Z,93.93
2016-05-26T02:12:09.303Z,93.46
2016-05-26T02:13:09.292Z,93.84
2016-05-26T02:14:09.294Z,93.93
2016-05-26T02:15:09.296Z,93.74
2016-05-26T02:16:09.299Z,93.74
2016-05-26T02:17:09.302Z,93.46
2016-05-26T02:18:09.305Z,94.03
2016-05-26T02:19:09.292Z,94.12
2016-05-26T02:20:09.310Z,94.12
2016-05-26T02:21:09.297Z,94.12
2016-05-26T02:22:09.316Z,93.93
2016-05-26T02:23:09.286Z,94.03
2016-05-26T02:24:09.149Z,94.03
2016-05-26T02:25:09.291Z,93.93
2016-05-26T02:26:09.294Z,94.12
2016-05-26T02:27:09.297Z,94.12
2016-05-26T02:28:09.284Z,94.12
2016-05-26T02:29:09.302Z,94.03
2016-05-26T02:30:09.290Z,93.74
2016-05-26T02:31:09.292Z,94.22
2016-05-26T02:32:09.295Z,93.93
2016-05-26T02:33:09.391Z,94.41
2016-05-26T02:34:09.301Z,94.7
2016-05-26T02:35:09.304Z,95.37
2016-05-26T02:36:09.290Z,95.46
2016-05-26T02:37:09.309Z,94.98
2016-05-26T02:38:09.327Z,95.37
2016-05-26T02:39:09.298Z,95.56
2016-05-26T02:40:09.145Z,94.7
2016-05-26T02:41:09.288Z,94.7
2016-05-26T02:42:09.290Z,94.51
2016-05-26T02:43:09.137Z,94.6
2016-05-26T02:44:09.281Z,94.41
2016-05-26T02:45:09.283Z,94.41
2016-05-26T02:46:09.348Z,94.51
2016-05-26T02:47:09.288Z,94.32
2016-05-26T02:48:09.181Z,94.6
2016-05-26T02:49:09.341Z,94.6
2016-05-26T02:50:09.280Z,94.32
2016-05-26T02:51:09.236Z,94.32
2016-05-26T02:52:09.286Z,94.7
2016-05-26T02:53:09.289Z,94.7
2016-05-26T02:54:09.339Z,94.98
2016-05-26T02:55:09.342Z,94.32
2016-05-26T02:56:09.281Z,94.51
2016-05-26T02:57:09.285Z,94.7
2016-05-26T02:58:09.131Z,94.12
2016-05-26T02:59:09.290Z,94.79
2016-05-26T03:00:09.293Z,94.27
2016-05-26T03:01:09.326Z,94.41
2016-05-26T03:02:09.298Z,94.51
2016-05-26T03:03:09.207Z,93.79
2016-05-26T03:04:09.303Z,93.74
2016-05-26T03:05:09.290Z,93.98
2016-05-26T03:06:09.309Z,93.7
2016-05-26T03:07:09.123Z,93.6
2016-05-26T03:08:09.283Z,93.41
2016-05-26T03:09:09.285Z,94.08
2016-05-26T03:10:09.287Z,94.56
2016-05-26T03:11:09.275Z,94.74
2016-05-26T03:12:09.278Z,95.12
2016-05-26T03:13:09.281Z,95.32
2016-05-26T03:14:09.127Z,95.32
2016-05-26T03:15:09.286Z,95.41
2016-05-26T03:16:09.304Z,95.32
2016-05-26T03:17:09.276Z,95.22
2016-05-26T03:18:09.294Z,95.22
2016-05-26T03:19:09.281Z,95.03
2016-05-26T03:20:09.283Z,95.51
2016-05-26T03:21:09.270Z,95.32
2016-05-26T03:22:09.273Z,95.32
2016-05-26T03:23:09.150Z,95.41
2016-05-26T03:24:09.278Z,95.22
2016-05-26T03:25:09.297Z,95.22
2016-05-26T03:26:09.143Z,95.41
2016-05-26T03:27:09.271Z,95.22
2016-05-26T03:28:09.274Z,95.32
2016-05-26T03:29:09.277Z,95.22
2016-05-26T03:30:09.279Z,95.61
2016-05-26T03:31:09.282Z,95.51
2016-05-26T03:32:09.269Z,95.51
2016-05-26T03:33:09.272Z,95.41
2016-05-26T03:34:09.290Z,95.32
2016-05-26T03:35:09.276Z,94.93
2016-05-26T03:36:09.124Z,94.93
2016-05-26T03:37:09.282Z,95.32
2016-05-26T03:38:09.113Z,95.22
2016-05-26T03:39:09.272Z,95.22
2016-05-26T03:40:09.275Z,94.93
2016-05-26T03:41:09.168Z,95.41
2016-05-26T03:42:09.264Z,95.32
2016-05-26T03:43:09.283Z,95.03
2016-05-26T03:44:09.270Z,94.93
2016-05-26T03:45:09.116Z,95.27
2016-05-26T03:46:09.306Z,95.22
2016-05-26T03:47:09.278Z,95.37
2016-05-26T03:48:09.687Z,95.32
2016-05-26T03:49:09.128Z,94.65
2016-05-26T03:50:09.270Z,94.41
2016-05-26T03:51:09.273Z,94.84
2016-05-26T03:52:09.260Z,94.32
2016-05-26T03:53:09.263Z,94.03
2016-05-26T03:54:09.266Z,93.46
2016-05-26T03:55:09.112Z,94.12
2016-05-26T03:56:09.271Z,94.03
2016-05-26T03:57:09.274Z,93.93
2016-05-26T03:58:09.119Z,94.08
2016-05-26T03:59:09.279Z,93.74
2016-05-26T04:00:09.266Z,94.27
2016-05-26T04:01:09.300Z,93.88
2016-05-26T04:02:09.255Z,93.88
2016-05-26T04:03:09.743Z,93.93
2016-05-26T04:04:09.261Z,94.12
2016-05-26T04:05:09.108Z,94.12
2016-05-26T04:06:09.266Z,94.03
2016-05-26T04:07:09.285Z,93.27
2016-05-26T04:08:09.257Z,92.26
2016-05-26T04:09:09.274Z,92.26
2016-05-26T04:10:09.262Z,92.46
2016-05-26T04:11:09.264Z,91.78
2016-05-26T04:12:09.267Z,91.88
2016-05-26T04:13:09.254Z,91.6
2016-05-26T04:14:09.273Z,90.97
2016-05-26T04:15:09.259Z,90.69
2016-05-26T04:16:09.293Z,89.64
2016-05-26T04:17:09.264Z,89.64
2016-05-26T04:18:09.268Z,88.87
2016-05-26T04:19:09.287Z,89.11
2016-05-26T04:20:09.288Z,89.3
2016-05-26T04:21:09.275Z,88.15
2016-05-26T04:22:09.278Z,88.82
2016-05-26T04:23:09.266Z,88.06
2016-05-26T04:24:09.269Z,87.62
2016-05-26T04:25:09.114Z,86.19
2016-05-26T04:26:09.289Z,85.42
2016-05-26T04:27:09.277Z,85.71
2016-05-26T04:28:09.279Z,84.28
2016-05-26T04:29:09.125Z,84.03
2016-05-26T04:30:09.285Z,83.65
2016-05-26T04:31:09.130Z,82.7
2016-05-26T04:32:09.133Z,81.65
2016-05-26T04:33:09.636Z,81.55
2016-05-26T04:34:09.295Z,81.84
2016-05-26T04:35:09.298Z,81.16
2016-05-26T04:36:09.284Z,80.88
2016-05-26T04:37:09.304Z,80.69
2016-05-26T04:38:09.307Z,80.69
2016-05-26T04:39:09.152Z,80.16
2016-05-26T04:40:09.312Z,79.64
2016-05-26T04:41:09.298Z,79.58
2016-05-26T04:42:09.317Z,79.77
2016-05-26T04:43:09.304Z,79.77
2016-05-26T04:44:09.322Z,79.77
2016-05-26T04:45:09.325Z,79.96
2016-05-26T04:46:09.359Z,80.16
2016-05-26T04:47:09.314Z,80.69
2016-05-26T04:48:09.817Z,80.59
2016-05-26T04:49:09.320Z,81.26
2016-05-26T04:50:09.166Z,81.84
2016-05-26T04:51:09.341Z,81.55
2016-05-26T04:52:09.328Z,81.93
2016-05-26T04:53:09.331Z,82.51
2016-05-26T04:54:09.334Z,82.6
2016-05-26T04:55:09.194Z,82.84
2016-05-26T04:56:09.355Z,82.51
2016-05-26T04:57:09.373Z,82.03
2016-05-26T04:58:09.203Z,81.74
2016-05-26T04:59:09.363Z,80.4
2016-05-26T05:00:09.380Z,79.93
2016-05-26T05:01:09.368Z,79.49
2016-05-26T05:02:09.355Z,79.1
2016-05-26T05:03:09.201Z,78.91
2016-05-26T05:04:09.360Z,78.14
2016-05-26T05:05:09.221Z,78.34
2016-05-26T05:06:09.365Z,77.86
2016-05-26T05:07:09.369Z,77.23
2016-05-26T05:08:09.387Z,77.61
2016-05-26T05:09:09.373Z,77.61
2016-05-26T05:10:09.392Z,77.9
2016-05-26T05:11:09.395Z,77.95
2016-05-26T05:12:09.398Z,78.34
2016-05-26T05:13:09.401Z,78.63
2016-05-26T05:14:09.387Z,79
2016-05-26T05:15:09.406Z,79
2016-05-26T05:16:09.393Z,79.58
2016-05-26T05:17:09.395Z,79.68
2016-05-26T05:18:10.163Z,79.39
2016-05-26T05:19:09.416Z,79.77
2016-05-26T05:20:09.403Z,80.02
2016-05-26T05:21:09.406Z,80.11
2016-05-26T05:22:09.408Z,80.59
2016-05-26T05:23:09.428Z,80.21
2016-05-26T05:24:09.414Z,79.29
2016-05-26T05:25:09.447Z,77.9
2016-05-26T05:26:09.278Z,75.6
2016-05-26T05:27:09.422Z,73.72
2016-05-26T05:28:09.441Z,72.99
2016-05-26T05:29:09.428Z,70.44
2016-05-26T05:30:09.430Z,69.77
2016-05-26T05:31:09.464Z,69.23
2016-05-26T05:32:09.436Z,67.89
2016-05-26T05:33:09.454Z,66.77
2016-05-26T05:34:09.441Z,66.49
2016-05-26T05:35:09.460Z,65.56
2016-05-26T05:36:09.462Z,64.59
2016-05-26T05:37:09.465Z,64.31
2016-05-26T05:38:09.467Z,63.54
2016-05-26T05:39:09.470Z,63.28
2016-05-26T05:40:09.488Z,62.61
2016-05-26T05:41:09.522Z,62.07
2016-05-26T05:42:09.493Z,61.11
2016-05-26T05:43:09.340Z,61.01
2016-05-26T05:44:09.498Z,60.82
2016-05-26T05:45:09.517Z,60.46
2016-05-26T05:46:09.504Z,59.31
2016-05-26T05:47:09.523Z,58.73
2016-05-26T05:48:09.370Z,57.51
2016-05-26T05:49:09.528Z,57.42
2016-05-26T05:50:09.531Z,57.51
2016-05-26T05:51:09.565Z,57.25
2016-05-26T05:52:09.551Z,56.96
2016-05-26T05:53:09.397Z,57.15
2016-05-26T05:54:09.572Z,57.99
2016-05-26T05:55:09.575Z,59.05
2016-05-26T05:56:09.625Z,60.27
2016-05-26T05:57:09.580Z,61.3
2016-05-26T05:58:09.427Z,61.97
2016-05-26T05:59:09.617Z,62.42
2016-05-26T06:00:09.447Z,62.13
2016-05-26T06:01:09.655Z,61.68
2016-05-26T06:02:09.610Z,60.53
2016-05-26T06:03:10.066Z,60.91
2016-05-26T06:04:09.616Z,59.89
2016-05-26T06:05:09.633Z,58.35
2016-05-26T06:06:09.636Z,57.42
2016-05-26T06:07:09.638Z,56.58
2016-05-26T06:08:09.657Z,55.81
2016-05-26T06:09:09.644Z,55.07
2016-05-26T06:10:09.679Z,54.78
2016-05-26T06:11:09.665Z,54.2
2016-05-26T06:12:09.684Z,54.2
2016-05-26T06:13:09.687Z,53.45
2016-05-26T06:14:09.689Z,53.65
2016-05-26T06:15:09.707Z,52.78
2016-05-26T06:16:09.740Z,52.61
2016-05-26T06:17:09.743Z,51.46
2016-05-26T06:18:10.497Z,51.65
2016-05-26T06:19:09.718Z,50.81
2016-05-26T06:20:09.768Z,50.32
2016-05-26T06:21:09.754Z,49.48
2016-05-26T06:22:09.586Z,49.39
2016-05-26T06:23:09.760Z,49.39
2016-05-26T06:24:09.762Z,49
2016-05-26T06:25:09.765Z,49.29
2016-05-26T06:26:09.800Z,49.39
2016-05-26T06:27:09.786Z,49.17
2016-05-26T06:28:09.789Z,48.9
2016-05-26T06:29:09.808Z,48.61
2016-05-26T06:30:09.810Z,48.23
2016-05-26T06:31:09.813Z,48.61
2016-05-26T06:32:09.831Z,47.87
2016-05-26T06:33:09.693Z,47.09
2016-05-26T06:34:09.836Z,46.9
2016-05-26T06:35:09.854Z,46.83
2016-05-26T06:36:09.857Z,46.83
2016-05-26T06:37:09.877Z,46.34
2016-05-26T06:38:09.879Z,46.83
2016-05-26T06:39:09.882Z,46.06
2016-05-26T06:40:09.899Z,46.06
2016-05-26T06:41:09.762Z,46.25
2016-05-26T06:42:09.905Z,46.15
2016-05-26T06:43:09.924Z,45.69
2016-05-26T06:44:09.926Z,45.79
2016-05-26T06:45:09.944Z,45.31
2016-05-26T06:46:09.947Z,45.31
2016-05-26T06:47:09.965Z,45.5
2016-05-26T06:48:09.827Z,45.4
2016-05-26T06:49:10.001Z,44.73
2016-05-26T06:50:09.989Z,44.75
2016-05-26T06:51:09.835Z,44.56
2016-05-26T06:52:10.010Z,44.17
2016-05-26T06:53:10.012Z,43.98
2016-05-26T06:54:10.014Z,43.78
2016-05-26T06:55:10.034Z,43.03
2016-05-26T06:56:10.036Z,43.03
2016-05-26T06:57:10.039Z,43.8
2016-05-26T06:58:09.917Z,43.99
2016-05-26T06:59:10.091Z,44.75
2016-05-26T07:00:10.078Z,44.94
2016-05-26T07:01:10.081Z,45.31
2016-05-26T07:02:10.100Z,45.69
2016-05-26T07:03:10.336Z,45.89
2016-05-26T07:04:10.105Z,46.47
2016-05-26T07:05:10.139Z,45.98
2016-05-26T07:06:10.141Z,46.08
2016-05-26T07:07:10.144Z,46.75
2016-05-26T07:08:10.146Z,46.92
2016-05-26T07:09:09.993Z,47.99
2016-05-26T07:10:10.230Z,47.87
2016-05-26T07:11:10.029Z,47.12
2016-05-26T07:12:10.188Z,46.34
2016-05-26T07:13:10.191Z,45.69
2016-05-26T07:14:10.194Z,45.11
2016-05-26T07:15:10.212Z,45.23
2016-05-26T07:16:10.231Z,43.78
2016-05-26T07:17:10.061Z,43.13
2016-05-26T07:18:10.237Z,42.76
2016-05-26T07:19:10.240Z,42.08
2016-05-26T07:20:10.257Z,42.4
2016-05-26T07:21:10.260Z,41.79
2016-05-26T07:22:10.278Z,41.72
2016-05-26T07:23:10.281Z,41.91
2016-05-26T07:24:10.299Z,41.72
2016-05-26T07:25:10.301Z,41.52
2016-05-26T07:26:10.320Z,41.24
2016-05-26T07:27:10.323Z,40.86
2016-05-26T07:28:10.341Z,41.06
2016-05-26T07:29:10.344Z,40.86
2016-05-26T07:30:10.346Z,41.04
2016-05-26T07:31:10.192Z,40.94
2016-05-26T07:32:10.367Z,40
2016-05-26T07:33:10.823Z,40.19
2016-05-26T07:34:10.388Z,41.06
2016-05-26T07:35:10.391Z,41.06
2016-05-26T07:36:10.393Z,40
2016-05-26T07:37:10.427Z,39.72
2016-05-26T07:38:10.455Z,39.62
2016-05-26T07:39:10.497Z,39.53
2016-05-26T07:40:10.525Z,39.74
2016-05-26T07:41:10.583Z,39.26
2016-05-26T07:42:10.587Z,38.58
2016-05-26T07:43:10.599Z,38.21
2016-05-26T07:44:10.485Z,38.02
2016-05-26T07:45:10.652Z,37.43
2016-05-26T07:46:10.680Z,37.16
2016-05-26T07:47:10.689Z,36.77
2016-05-26T07:48:10.694Z,37.26
2016-05-26T07:49:10.701Z,37.07
2016-05-26T07:50:10.722Z,36.38
2016-05-26T07:51:10.728Z,37.28
2016-05-26T07:52:10.749Z,36.38
2016-05-26T07:53:10.753Z,36.02
2016-05-26T07:54:10.772Z,36.38
2016-05-26T07:55:10.620Z,36.48
2016-05-26T07:56:10.796Z,36.38
2016-05-26T07:57:10.799Z,35.71
2016-05-26T07:58:10.817Z,35.71
2016-05-26T07:59:10.821Z,35.61
2016-05-26T08:00:10.824Z,34.75
2016-05-26T08:01:10.841Z,34.95
2016-05-26T08:02:10.861Z,35.92
2016-05-26T08:03:11.176Z,35.24
2016-05-26T08:04:10.882Z,34.87
2016-05-26T08:05:10.885Z,35.14
2016-05-26T08:06:10.888Z,36.11
2016-05-26T08:07:10.905Z,36.29
2016-05-26T08:08:10.923Z,34.93
2016-05-26T08:09:10.927Z,34.46
2016-05-26T08:10:10.930Z,34.66
2016-05-26T08:11:10.948Z,33.8
2016-05-26T08:12:10.951Z,33.9
2016-05-26T08:13:10.968Z,33.72
2016-05-26T08:14:10.987Z,33.51
2016-05-26T08:15:10.990Z,33.51
2016-05-26T08:16:10.993Z,33.31
2016-05-26T08:17:11.010Z,34.19
2016-05-26T08:18:11.012Z,33.61
2016-05-26T08:19:11.032Z,33.7
2016-05-26T08:20:11.050Z,33.61
2016-05-26T08:21:11.068Z,33.12
2016-05-26T08:22:11.070Z,32.92
2016-05-26T08:23:11.089Z,33.43
2016-05-26T08:24:11.092Z,32.94
2016-05-26T08:25:11.078Z,33.43
2016-05-26T08:26:11.128Z,33.14
2016-05-26T08:27:10.944Z,33.23
2016-05-26T08:28:11.118Z,33.53
2016-05-26T08:29:11.136Z,33.99
2016-05-26T08:30:11.139Z,33.23
2016-05-26T08:31:11.157Z,33.33
2016-05-26T08:32:13.472Z,33.14
2016-05-26T08:33:11.179Z,33.33
2016-05-26T08:34:11.180Z,33.81
2016-05-26T08:35:11.199Z,33.14
2016-05-26T08:36:11.233Z,32.57
2016-05-26T08:37:12.189Z,32.28
2016-05-26T08:38:11.239Z,31.98
2016-05-26T08:39:11.242Z,32.28
2016-05-26T08:40:11.243Z,31.6
2016-05-26T08:41:11.279Z,32.28
2016-05-26T08:42:11.266Z,33.23
2016-05-26T08:43:11.284Z,33.33
2016-05-26T08:44:11.287Z,34.67
2016-05-26T08:45:11.304Z,36.02
2016-05-26T08:46:11.307Z,36.1
2016-05-26T08:47:11.307Z,36.66
2016-05-26T08:48:11.326Z,37.41
2016-05-26T08:49:11.329Z,38.66
2016-05-26T08:50:11.346Z,40
2016-05-26T08:51:11.193Z,41.91
2016-05-26T08:52:11.368Z,43.73
2016-05-26T08:53:11.370Z,45.52
2016-05-26T08:54:11.373Z,46.66
2016-05-26T08:55:11.391Z,48.06
2016-05-26T08:56:11.394Z,49.51
2016-05-26T08:57:11.397Z,50.74
2016-05-26T08:58:11.415Z,51.39
2016-05-26T08:59:11.417Z,51.29
2016-05-26T09:00:11.452Z,51.58
2016-05-26T09:01:11.439Z,51.22
2016-05-26T09:02:11.300Z,50.54
2016-05-26T09:03:11.460Z,50.47
2016-05-26T09:04:11.463Z,50.67
2016-05-26T09:05:11.480Z,49.9
2016-05-26T09:06:11.483Z,48.83
2016-05-26T09:07:11.486Z,49.41
2016-05-26T09:08:11.488Z,49.9
2016-05-26T09:09:11.522Z,50.74
2016-05-26T09:10:11.525Z,52.55
2016-05-26T09:11:14.593Z,52.64
2016-05-26T09:12:11.530Z,53.09
2016-05-26T09:13:11.549Z,53.39
2016-05-26T09:14:11.535Z,53.29
2016-05-26T09:15:11.398Z,52.73
2016-05-26T09:16:11.463Z,52.64
2016-05-26T09:17:11.560Z,52.16
2016-05-26T09:18:12.299Z,51.97
2016-05-26T09:19:11.581Z,52.35
2016-05-26T09:20:11.584Z,51.58
2016-05-26T09:21:11.586Z,51.41
2016-05-26T09:22:11.604Z,51.48
2016-05-26T09:23:11.435Z,51.68
2016-05-26T09:24:11.610Z,51.32
2016-05-26T09:25:11.629Z,51.41
2016-05-26T09:26:11.630Z,51.12
2016-05-26T09:27:11.634Z,51.03
2016-05-26T09:28:11.636Z,51.03
2016-05-26T09:29:11.639Z,50.84
2016-05-26T09:30:11.486Z,50.84
2016-05-26T09:31:11.661Z,51.2
2016-05-26T09:32:11.663Z,52.16
2016-05-26T09:33:11.759Z,52.83
2016-05-26T09:34:11.809Z,52.16
2016-05-26T09:35:11.686Z,52.16
2016-05-26T09:36:11.736Z,52.16
2016-05-26T09:37:11.535Z,51.32
2016-05-26T09:38:11.694Z,51.12
2016-05-26T09:39:11.713Z,50.54
2016-05-26T09:40:11.716Z,50.35
2016-05-26T09:41:11.718Z,51.34
2016-05-26T09:42:11.736Z,50.64
2016-05-26T09:43:11.724Z,50.28
2016-05-26T09:44:11.741Z,50.47
2016-05-26T09:45:11.744Z,48.54
2016-05-26T09:46:11.607Z,48.83
2016-05-26T09:47:11.750Z,48.74
2016-05-26T09:48:11.596Z,48.54
2016-05-26T09:49:11.615Z,48.25
2016-05-26T09:50:11.774Z,47.48
2016-05-26T09:51:11.807Z,45.65
2016-05-26T09:52:11.779Z,44.49
2016-05-26T09:53:11.797Z,40.92
2016-05-26T09:54:11.801Z,41.03
2016-05-26T09:55:11.803Z,40.94
2016-05-26T09:56:11.806Z,40.07
2016-05-26T09:57:11.651Z,40.55
2016-05-26T09:58:11.842Z,40.94
2016-05-26T09:59:11.829Z,39.39
2016-05-26T10:00:11.832Z,38.16
2016-05-26T10:01:11.694Z,36.9
2016-05-26T10:02:11.853Z,38.25
2016-05-26T10:03:11.871Z,39.7
2016-05-26T10:04:11.858Z,39.51
2016-05-26T10:05:11.877Z,42.02
2016-05-26T10:06:11.911Z,40.19
2016-05-26T10:07:11.882Z,39.61
2016-05-26T10:08:11.900Z,39.01
2016-05-26T10:09:11.888Z,38.71
2016-05-26T10:10:11.890Z,40.17
2016-05-26T10:11:11.939Z,40.94
2016-05-26T10:12:11.911Z,41.69
2016-05-26T10:13:11.930Z,41.5
2016-05-26T10:14:11.916Z,41.69
2016-05-26T10:15:11.935Z,42.36
2016-05-26T10:16:11.938Z,43.91
2016-05-26T10:17:11.940Z,43.54
2016-05-26T10:18:12.801Z,44.03
2016-05-26T10:19:12.446Z,43.06
2016-05-26T10:20:11.963Z,42.5
2016-05-26T10:21:11.966Z,41.35
2016-05-26T10:22:11.968Z,40.47
2016-05-26T10:23:11.831Z,40.98
2016-05-26T10:24:11.990Z,41.94
2016-05-26T10:25:11.993Z,41.35
2016-05-26T10:26:12.011Z,40.67
2016-05-26T10:27:11.998Z,41.35
2016-05-26T10:28:12.032Z,42.41
2016-05-26T10:29:12.020Z,43.85
2016-05-26T10:30:12.037Z,43.76
2016-05-26T10:31:11.947Z,43.66
2016-05-26T10:32:12.027Z,42.99
2016-05-26T10:33:12.123Z,42.31
2016-05-26T10:34:12.048Z,41.15
2016-05-26T10:35:12.066Z,40.96
2016-05-26T10:36:11.975Z,41.83
2016-05-26T10:37:12.071Z,40.09
2016-05-26T10:38:12.075Z,40.38
2016-05-26T10:39:12.093Z,41.35
2016-05-26T10:40:12.096Z,39.7
2016-05-26T10:41:12.114Z,39.99
2016-05-26T10:42:12.116Z,39.7
2016-05-26T10:43:12.104Z,39.7
2016-05-26T10:44:11.965Z,38.64
2016-05-26T10:45:12.124Z,38.28
2016-05-26T10:46:12.175Z,38.46
2016-05-26T10:47:12.130Z,37.21
2016-05-26T10:48:12.914Z,37.7
2016-05-26T10:49:12.666Z,38.25
2016-05-26T10:50:12.154Z,38.64
2016-05-26T10:51:12.156Z,38.93
2016-05-26T10:52:12.175Z,38.64
2016-05-26T10:53:12.021Z,38.93
2016-05-26T10:54:12.180Z,38.35
2016-05-26T10:55:12.182Z,38.06
2016-05-26T10:56:12.185Z,38.93
2016-05-26T10:57:12.203Z,38.64
2016-05-26T10:58:12.206Z,38.35
2016-05-26T10:59:12.225Z,38.16
2016-05-26T11:00:12.212Z,38.45
2016-05-26T11:01:12.230Z,38.54
2016-05-26T11:02:12.233Z,38.45
2016-05-26T11:03:12.079Z,38.06
2016-05-26T11:04:12.253Z,38.45
2016-05-26T11:05:12.241Z,38.16
2016-05-26T11:06:12.259Z,37.29
2016-05-26T11:07:12.262Z,36.5
2016-05-26T11:08:12.264Z,36.11
2016-05-26T11:09:12.267Z,36.13
2016-05-26T11:10:12.286Z,35.84
2016-05-26T11:11:12.288Z,35.94
2016-05-26T11:12:12.307Z,36.24
2016-05-26T11:13:12.294Z,36.16
2016-05-26T11:14:12.312Z,34.71
2016-05-26T11:15:12.346Z,34.34
2016-05-26T11:16:12.348Z,33.86
2016-05-26T11:17:12.335Z,33.18
2016-05-26T11:18:12.354Z,33.47
2016-05-26T11:19:12.341Z,34.25
2016-05-26T11:20:12.344Z,33.69
2016-05-26T11:21:12.362Z,34.17
2016-05-26T11:22:12.349Z,34.17
2016-05-26T11:23:12.212Z,33.1
2016-05-26T11:24:12.370Z,33.69
2016-05-26T11:25:12.217Z,33.2
2016-05-26T11:26:12.391Z,34.07
2016-05-26T11:27:12.393Z,35.31
2016-05-26T11:28:12.396Z,34.55
2016-05-26T11:29:12.398Z,33.78
2016-05-26T11:30:12.418Z,33.29
2016-05-26T11:31:12.420Z,33.2
2016-05-26T11:32:12.267Z,37.07
2016-05-26T11:33:12.284Z,35.23
2016-05-26T11:34:12.459Z,33.49
2016-05-26T11:35:12.462Z,33.01
2016-05-26T11:36:12.497Z,31.65
2016-05-26T11:37:12.452Z,34.65
2016-05-26T11:38:12.486Z,32.31
2016-05-26T11:39:12.473Z,31.54
2016-05-26T11:40:12.491Z,30.96
2016-05-26T11:41:12.494Z,31.05
2016-05-26T11:42:12.497Z,32.12
2016-05-26T11:43:12.500Z,32.12
2016-05-26T11:44:12.502Z,31.54
2016-05-26T11:45:12.521Z,31.73
2016-05-26T11:46:12.523Z,31.07
2016-05-26T11:47:12.526Z,31.46
2016-05-26T11:48:13.279Z,30.99
2016-05-26T11:49:12.563Z,30.11
2016-05-26T11:50:12.596Z,30.04
2016-05-26T11:51:12.568Z,29.06
2016-05-26T11:52:12.571Z,28.97
2016-05-26T11:53:12.433Z,28.49
2016-05-26T11:54:12.576Z,28.29
2016-05-26T11:55:12.594Z,28.29
2016-05-26T11:56:12.596Z,34.67
2016-05-26T11:57:12.600Z,34.38
2016-05-26T11:58:12.602Z,36.02
2016-05-26T11:59:12.604Z,35.44
2016-05-26T12:00:12.640Z,35.52
2016-05-26T12:01:12.642Z,36.4
2016-05-26T12:02:12.644Z,37.15
2016-05-26T12:03:12.678Z,37.44
2016-05-26T12:04:12.509Z,36.76
2016-05-26T12:05:12.653Z,36.74
2016-05-26T12:06:12.670Z,37.34
2016-05-26T12:07:12.673Z,37.42
2016-05-26T12:08:12.676Z,38.6
2016-05-26T12:09:12.678Z,36.96
2016-05-26T12:10:12.714Z,37.44
2016-05-26T12:11:12.731Z,37.73
2016-05-26T12:12:12.702Z,35.89
2016-05-26T12:13:12.705Z,35.31
2016-05-26T12:14:12.724Z,34.34
2016-05-26T12:15:12.727Z,32.89
2016-05-26T12:16:12.729Z,32.71
2016-05-26T12:17:12.732Z,37.36
2016-05-26T12:18:12.593Z,36.2
2016-05-26T12:19:12.612Z,36.2
2016-05-26T12:20:12.755Z,36.78
2016-05-26T12:21:12.789Z,39.59
2016-05-26T12:22:12.776Z,36.49
2016-05-26T12:23:12.779Z,37.63
2016-05-26T12:24:12.796Z,36.58
2016-05-26T12:25:12.800Z,36.76
2016-05-26T12:26:12.646Z,36.86
2016-05-26T12:27:12.648Z,37.05
2016-05-26T12:28:12.808Z,37.04
2016-05-26T12:29:12.826Z,37.42
2016-05-26T12:30:12.829Z,37.23
2016-05-26T12:31:12.832Z,36.94
2016-05-26T12:32:12.834Z,36.46
2016-05-26T12:33:13.040Z,36.65
2016-05-26T12:34:13.106Z,36.26
2016-05-26T12:35:12.874Z,36.18
2016-05-26T12:36:12.720Z,36.16
2016-05-26T12:37:12.894Z,36.28
2016-05-26T12:38:12.882Z,35.89
2016-05-26T12:39:12.885Z,35.21
2016-05-26T12:40:12.887Z,34.83
2016-05-26T12:41:12.906Z,34.83
2016-05-26T12:42:12.908Z,34.17
2016-05-26T12:43:12.911Z,34.36
2016-05-26T12:44:12.929Z,34.84
2016-05-26T12:45:12.933Z,35.33
2016-05-26T12:46:12.935Z,34.45
2016-05-26T12:47:12.953Z,35.23
2016-05-26T12:48:12.955Z,35.41
2016-05-26T12:49:12.818Z,35.81
2016-05-26T12:50:12.961Z,35.33
2016-05-26T12:51:12.963Z,34.75
2016-05-26T12:52:12.982Z,34.55
2016-05-26T12:53:12.985Z,34.38
2016-05-26T12:54:12.988Z,33.87
2016-05-26T12:55:13.005Z,34.28